sensor_id;sensor_type;location;lat;lon;timestamp;P1;durP1;ratioP1;P2;durP2;ratioP2
4214;SDS011;2121;48.062;7.850;2024-02-15T00:00:27;4.07;;;3.53;;
4214;SDS011;2121;48.062;7.850;2024-02-15T00:02:53;7.07;;;3.60;;
4214;SDS011;2121;48.062;7.850;2024-02-15T00:05:19;4.90;;;3.40;;
4214;SDS011;2121;48.062;7.850;2024-02-15T00:07:45;3.60;;;2.90;;
4214;SDS011;2121;48.062;7.850;2024-02-15T00:10:14;3.47;;;3.17;;
4214;SDS011;2121;48.062;7.850;2024-02-15T00:12:40;4.37;;;3.17;;
4214;SDS011;2121;48.062;7.850;2024-02-15T00:15:06;3.17;;;2.87;;
4214;SDS011;2121;48.062;7.850;2024-02-15T00:17:32;13.20;;;3.40;;
4214;SDS011;2121;48.062;7.850;2024-02-15T00:19:59;4.50;;;2.90;;
4214;SDS011;2121;48.062;7.850;2024-02-15T00:22:25;2.50;;;2.40;;
4214;SDS011;2121;48.062;7.850;2024-02-15T00:24:51;4.93;;;3.17;;
4214;SDS011;2121;48.062;7.850;2024-02-15T00:27:18;10.03;;;3.27;;
4214;SDS011;2121;48.062;7.850;2024-02-15T00:29:45;3.47;;;2.60;;
4214;SDS011;2121;48.062;7.850;2024-02-15T00:32:11;8.77;;;3.20;;
4214;SDS011;2121;48.062;7.850;2024-02-15T00:34:37;3.43;;;3.10;;
4214;SDS011;2121;48.062;7.850;2024-02-15T00:37:04;2.97;;;2.70;;
4214;SDS011;2121;48.062;7.850;2024-02-15T00:39:30;3.83;;;3.20;;
4214;SDS011;2121;48.062;7.850;2024-02-15T00:41:57;3.27;;;2.97;;
4214;SDS011;2121;48.062;7.850;2024-02-15T00:44:25;3.30;;;3.00;;
4214;SDS011;2121;48.062;7.850;2024-02-15T00:46:52;4.63;;;3.57;;
4214;SDS011;2121;48.062;7.850;2024-02-15T00:49:17;4.10;;;3.70;;
4214;SDS011;2121;48.062;7.850;2024-02-15T00:51:45;4.60;;;2.87;;
4214;SDS011;2121;48.062;7.850;2024-02-15T00:54:11;6.00;;;3.80;;
4214;SDS011;2121;48.062;7.850;2024-02-15T00:56:37;5.13;;;3.60;;
4214;SDS011;2121;48.062;7.850;2024-02-15T00:59:03;9.90;;;3.33;;
4214;SDS011;2121;48.062;7.850;2024-02-15T01:01:30;6.10;;;3.70;;
4214;SDS011;2121;48.062;7.850;2024-02-15T01:03:56;4.23;;;3.10;;
4214;SDS011;2121;48.062;7.850;2024-02-15T01:06:22;7.33;;;4.00;;
4214;SDS011;2121;48.062;7.850;2024-02-15T01:08:48;7.38;;;3.83;;
4214;SDS011;2121;48.062;7.850;2024-02-15T01:11:13;7.37;;;3.67;;
4214;SDS011;2121;48.062;7.850;2024-02-15T01:13:39;6.10;;;3.80;;
4214;SDS011;2121;48.062;7.850;2024-02-15T01:16:05;7.60;;;3.53;;
4214;SDS011;2121;48.062;7.850;2024-02-15T01:18:32;4.80;;;4.07;;
4214;SDS011;2121;48.062;7.850;2024-02-15T01:20:58;13.70;;;3.70;;
4214;SDS011;2121;48.062;7.850;2024-02-15T01:23:24;6.40;;;3.37;;
4214;SDS011;2121;48.062;7.850;2024-02-15T01:25:50;3.73;;;3.10;;
4214;SDS011;2121;48.062;7.850;2024-02-15T01:28:17;3.93;;;3.53;;
4214;SDS011;2121;48.062;7.850;2024-02-15T01:30:43;4.80;;;3.10;;
4214;SDS011;2121;48.062;7.850;2024-02-15T01:33:09;5.30;;;3.83;;
4214;SDS011;2121;48.062;7.850;2024-02-15T01:35:36;7.03;;;3.37;;
4214;SDS011;2121;48.062;7.850;2024-02-15T01:38:02;9.90;;;4.17;;
4214;SDS011;2121;48.062;7.850;2024-02-15T01:40:29;6.00;;;4.10;;
4214;SDS011;2121;48.062;7.850;2024-02-15T01:42:54;6.50;;;3.87;;
4214;SDS011;2121;48.062;7.850;2024-02-15T01:45:20;3.80;;;2.90;;
4214;SDS011;2121;48.062;7.850;2024-02-15T01:47:47;5.20;;;3.20;;
4214;SDS011;2121;48.062;7.850;2024-02-15T01:50:14;5.57;;;3.80;;
4214;SDS011;2121;48.062;7.850;2024-02-15T01:52:41;4.67;;;3.20;;
4214;SDS011;2121;48.062;7.850;2024-02-15T01:55:08;5.90;;;3.27;;
4214;SDS011;2121;48.062;7.850;2024-02-15T01:57:38;3.90;;;3.47;;
4214;SDS011;2121;48.062;7.850;2024-02-15T02:00:05;6.17;;;3.43;;
4214;SDS011;2121;48.062;7.850;2024-02-15T02:02:33;2.90;;;2.70;;
4214;SDS011;2121;48.062;7.850;2024-02-15T02:05:01;3.77;;;2.87;;
4214;SDS011;2121;48.062;7.850;2024-02-15T02:07:27;3.23;;;2.70;;
4214;SDS011;2121;48.062;7.850;2024-02-15T02:09:53;3.27;;;2.90;;
4214;SDS011;2121;48.062;7.850;2024-02-15T02:12:19;2.93;;;1.93;;
4214;SDS011;2121;48.062;7.850;2024-02-15T02:14:45;4.03;;;2.90;;
4214;SDS011;2121;48.062;7.850;2024-02-15T02:17:11;2.97;;;2.70;;
4214;SDS011;2121;48.062;7.850;2024-02-15T02:19:41;4.27;;;2.40;;
4214;SDS011;2121;48.062;7.850;2024-02-15T02:22:08;3.13;;;2.67;;
4214;SDS011;2121;48.062;7.850;2024-02-15T02:24:35;4.30;;;2.37;;
4214;SDS011;2121;48.062;7.850;2024-02-15T02:27:10;3.23;;;2.77;;
4214;SDS011;2121;48.062;7.850;2024-02-15T02:29:42;4.43;;;2.37;;
4214;SDS011;2121;48.062;7.850;2024-02-15T02:32:12;3.73;;;3.00;;
4214;SDS011;2121;48.062;7.850;2024-02-15T02:34:38;3.13;;;2.43;;
4214;SDS011;2121;48.062;7.850;2024-02-15T02:37:05;2.70;;;2.33;;
4214;SDS011;2121;48.062;7.850;2024-02-15T02:39:33;4.47;;;2.60;;
4214;SDS011;2121;48.062;7.850;2024-02-15T02:41:59;2.63;;;2.13;;
4214;SDS011;2121;48.062;7.850;2024-02-15T02:44:25;2.03;;;1.93;;
4214;SDS011;2121;48.062;7.850;2024-02-15T02:46:51;3.00;;;2.30;;
4214;SDS011;2121;48.062;7.850;2024-02-15T02:49:16;6.63;;;2.60;;
4214;SDS011;2121;48.062;7.850;2024-02-15T02:51:42;2.70;;;2.00;;
4214;SDS011;2121;48.062;7.850;2024-02-15T02:54:08;7.17;;;2.80;;
4214;SDS011;2121;48.062;7.850;2024-02-15T02:56:34;2.87;;;2.23;;
4214;SDS011;2121;48.062;7.850;2024-02-15T02:59:00;2.47;;;2.27;;
4214;SDS011;2121;48.062;7.850;2024-02-15T03:01:25;2.17;;;2.07;;
4214;SDS011;2121;48.062;7.850;2024-02-15T03:03:52;2.17;;;1.97;;
4214;SDS011;2121;48.062;7.850;2024-02-15T03:06:20;3.43;;;2.37;;
4214;SDS011;2121;48.062;7.850;2024-02-15T03:08:47;4.50;;;2.27;;
4214;SDS011;2121;48.062;7.850;2024-02-15T03:11:12;2.30;;;2.10;;
4214;SDS011;2121;48.062;7.850;2024-02-15T03:13:42;4.07;;;2.30;;
4214;SDS011;2121;48.062;7.850;2024-02-15T03:16:09;4.07;;;2.23;;
4214;SDS011;2121;48.062;7.850;2024-02-15T03:18:35;3.23;;;2.27;;
4214;SDS011;2121;48.062;7.850;2024-02-15T03:21:00;4.20;;;2.23;;
4214;SDS011;2121;48.062;7.850;2024-02-15T03:23:26;5.00;;;3.43;;
4214;SDS011;2121;48.062;7.850;2024-02-15T03:25:53;2.13;;;2.03;;
4214;SDS011;2121;48.062;7.850;2024-02-15T03:28:19;1.73;;;1.63;;
4214;SDS011;2121;48.062;7.850;2024-02-15T03:30:46;2.17;;;2.03;;
4214;SDS011;2121;48.062;7.850;2024-02-15T03:33:12;2.33;;;2.10;;
4214;SDS011;2121;48.062;7.850;2024-02-15T03:35:38;2.53;;;1.90;;
4214;SDS011;2121;48.062;7.850;2024-02-15T03:38:04;4.20;;;2.20;;
4214;SDS011;2121;48.062;7.850;2024-02-15T03:40:31;2.67;;;2.23;;
4214;SDS011;2121;48.062;7.850;2024-02-15T03:42:57;4.43;;;2.20;;
4214;SDS011;2121;48.062;7.850;2024-02-15T03:45:23;3.40;;;2.00;;
4214;SDS011;2121;48.062;7.850;2024-02-15T03:47:52;3.40;;;2.50;;
4214;SDS011;2121;48.062;7.850;2024-02-15T03:50:18;4.40;;;2.20;;
4214;SDS011;2121;48.062;7.850;2024-02-15T03:52:46;11.80;;;2.77;;
4214;SDS011;2121;48.062;7.850;2024-02-15T03:55:12;2.13;;;1.83;;
4214;SDS011;2121;48.062;7.850;2024-02-15T03:57:39;2.80;;;2.30;;
4214;SDS011;2121;48.062;7.850;2024-02-15T04:00:07;3.07;;;2.30;;
4214;SDS011;2121;48.062;7.850;2024-02-15T04:02:35;3.10;;;2.77;;
4214;SDS011;2121;48.062;7.850;2024-02-15T04:05:02;2.33;;;2.13;;
4214;SDS011;2121;48.062;7.850;2024-02-15T04:07:30;4.07;;;2.80;;
4214;SDS011;2121;48.062;7.850;2024-02-15T04:09:56;4.00;;;1.80;;
4214;SDS011;2121;48.062;7.850;2024-02-15T04:12:22;2.17;;;1.97;;
4214;SDS011;2121;48.062;7.850;2024-02-15T04:14:47;3.27;;;2.37;;
4214;SDS011;2121;48.062;7.850;2024-02-15T04:17:14;2.70;;;2.50;;
4214;SDS011;2121;48.062;7.850;2024-02-15T04:19:46;2.93;;;2.60;;
4214;SDS011;2121;48.062;7.850;2024-02-15T04:22:14;2.67;;;1.90;;
4214;SDS011;2121;48.062;7.850;2024-02-15T04:24:41;2.77;;;2.47;;
4214;SDS011;2121;48.062;7.850;2024-02-15T04:27:10;3.17;;;2.47;;
4214;SDS011;2121;48.062;7.850;2024-02-15T04:29:42;2.50;;;1.73;;
4214;SDS011;2121;48.062;7.850;2024-02-15T04:32:09;2.23;;;2.00;;
4214;SDS011;2121;48.062;7.850;2024-02-15T04:34:36;2.80;;;2.07;;
4214;SDS011;2121;48.062;7.850;2024-02-15T04:37:02;3.13;;;2.43;;
4214;SDS011;2121;48.062;7.850;2024-02-15T04:39:32;3.90;;;2.87;;
4214;SDS011;2121;48.062;7.850;2024-02-15T04:42:01;4.60;;;2.67;;
4214;SDS011;2121;48.062;7.850;2024-02-15T04:44:29;3.97;;;2.93;;
4214;SDS011;2121;48.062;7.850;2024-02-15T04:47:00;3.03;;;2.80;;
4214;SDS011;2121;48.062;7.850;2024-02-15T04:49:30;3.80;;;3.37;;
4214;SDS011;2121;48.062;7.850;2024-02-15T04:51:56;3.27;;;2.70;;
4214;SDS011;2121;48.062;7.850;2024-02-15T04:54:22;7.83;;;2.83;;
4214;SDS011;2121;48.062;7.850;2024-02-15T04:56:48;3.83;;;2.87;;
4214;SDS011;2121;48.062;7.850;2024-02-15T04:59:19;3.07;;;2.70;;
4214;SDS011;2121;48.062;7.850;2024-02-15T05:01:46;4.20;;;2.97;;
4214;SDS011;2121;48.062;7.850;2024-02-15T05:04:14;6.67;;;3.30;;
4214;SDS011;2121;48.062;7.850;2024-02-15T05:06:40;2.77;;;2.47;;
4214;SDS011;2121;48.062;7.850;2024-02-15T05:09:06;3.53;;;2.20;;
4214;SDS011;2121;48.062;7.850;2024-02-15T05:11:34;4.27;;;2.73;;
4214;SDS011;2121;48.062;7.850;2024-02-15T05:14:03;3.23;;;2.93;;
4214;SDS011;2121;48.062;7.850;2024-02-15T05:16:32;4.60;;;3.10;;
4214;SDS011;2121;48.062;7.850;2024-02-15T05:18:58;3.57;;;3.17;;
4214;SDS011;2121;48.062;7.850;2024-02-15T05:21:24;3.23;;;2.80;;
4214;SDS011;2121;48.062;7.850;2024-02-15T05:23:50;4.43;;;2.97;;
4214;SDS011;2121;48.062;7.850;2024-02-15T05:26:17;4.27;;;2.30;;
4214;SDS011;2121;48.062;7.850;2024-02-15T05:28:48;2.50;;;2.30;;
4214;SDS011;2121;48.062;7.850;2024-02-15T05:31:18;5.67;;;2.80;;
4214;SDS011;2121;48.062;7.850;2024-02-15T05:36:12;2.77;;;2.30;;
4214;SDS011;2121;48.062;7.850;2024-02-15T05:38:39;2.33;;;2.07;;
4214;SDS011;2121;48.062;7.850;2024-02-15T05:41:06;4.33;;;2.40;;
4214;SDS011;2121;48.062;7.850;2024-02-15T05:43:36;2.57;;;2.37;;
4214;SDS011;2121;48.062;7.850;2024-02-15T05:46:06;3.60;;;2.30;;
4214;SDS011;2121;48.062;7.850;2024-02-15T05:48:37;2.10;;;1.90;;
4214;SDS011;2121;48.062;7.850;2024-02-15T05:51:04;5.77;;;2.50;;
4214;SDS011;2121;48.062;7.850;2024-02-15T05:53:31;5.47;;;2.57;;
4214;SDS011;2121;48.062;7.850;2024-02-15T05:56:04;2.23;;;2.00;;
4214;SDS011;2121;48.062;7.850;2024-02-15T05:58:32;1.87;;;1.77;;
4214;SDS011;2121;48.062;7.850;2024-02-15T06:00:58;3.13;;;2.20;;
4214;SDS011;2121;48.062;7.850;2024-02-15T06:03:27;4.20;;;2.40;;
4214;SDS011;2121;48.062;7.850;2024-02-15T06:05:58;3.13;;;2.53;;
4214;SDS011;2121;48.062;7.850;2024-02-15T06:08:31;3.13;;;2.83;;
4214;SDS011;2121;48.062;7.850;2024-02-15T06:10:58;6.60;;;3.60;;
4214;SDS011;2121;48.062;7.850;2024-02-15T06:13:25;2.17;;;2.07;;
4214;SDS011;2121;48.062;7.850;2024-02-15T06:15:51;3.13;;;2.43;;
4214;SDS011;2121;48.062;7.850;2024-02-15T06:18:23;8.53;;;2.33;;
4214;SDS011;2121;48.062;7.850;2024-02-15T06:20:52;3.97;;;2.23;;
4214;SDS011;2121;48.062;7.850;2024-02-15T06:23:21;3.87;;;2.47;;
4214;SDS011;2121;48.062;7.850;2024-02-15T06:25:50;14.67;;;2.90;;
4214;SDS011;2121;48.062;7.850;2024-02-15T06:28:24;2.70;;;2.50;;
4214;SDS011;2121;48.062;7.850;2024-02-15T06:31:08;4.70;;;3.50;;
4214;SDS011;2121;48.062;7.850;2024-02-15T06:33:54;5.87;;;3.27;;
4214;SDS011;2121;48.062;7.850;2024-02-15T06:36:39;13.43;;;3.17;;
4214;SDS011;2121;48.062;7.850;2024-02-15T06:39:30;3.80;;;2.77;;
4214;SDS011;2121;48.062;7.850;2024-02-15T06:42:10;3.50;;;2.87;;
4214;SDS011;2121;48.062;7.850;2024-02-15T06:44:40;3.20;;;2.90;;
4214;SDS011;2121;48.062;7.850;2024-02-15T06:47:07;7.37;;;3.10;;
4214;SDS011;2121;48.062;7.850;2024-02-15T06:49:45;6.27;;;3.40;;
4214;SDS011;2121;48.062;7.850;2024-02-15T06:52:11;2.73;;;2.53;;
4214;SDS011;2121;48.062;7.850;2024-02-15T06:54:38;9.00;;;4.20;;
4214;SDS011;2121;48.062;7.850;2024-02-15T06:57:04;4.03;;;3.73;;
4214;SDS011;2121;48.062;7.850;2024-02-15T06:59:31;6.13;;;5.53;;
4214;SDS011;2121;48.062;7.850;2024-02-15T07:01:57;6.97;;;4.90;;
4214;SDS011;2121;48.062;7.850;2024-02-15T07:04:24;4.90;;;4.40;;
4214;SDS011;2121;48.062;7.850;2024-02-15T07:06:52;6.03;;;2.97;;
4214;SDS011;2121;48.062;7.850;2024-02-15T07:09:22;4.20;;;3.10;;
4214;SDS011;2121;48.062;7.850;2024-02-15T07:11:49;7.23;;;3.43;;
4214;SDS011;2121;48.062;7.850;2024-02-15T07:14:19;3.03;;;2.77;;
4214;SDS011;2121;48.062;7.850;2024-02-15T07:16:48;7.60;;;3.80;;
4214;SDS011;2121;48.062;7.850;2024-02-15T07:19:16;5.80;;;4.20;;
4214;SDS011;2121;48.062;7.850;2024-02-15T07:21:43;5.90;;;2.80;;
4214;SDS011;2121;48.062;7.850;2024-02-15T07:24:09;6.03;;;3.10;;
4214;SDS011;2121;48.062;7.850;2024-02-15T07:26:35;4.50;;;3.00;;
4214;SDS011;2121;48.062;7.850;2024-02-15T07:29:01;5.17;;;3.07;;
4214;SDS011;2121;48.062;7.850;2024-02-15T07:31:31;5.63;;;3.50;;
4214;SDS011;2121;48.062;7.850;2024-02-15T07:33:58;4.13;;;3.70;;
4214;SDS011;2121;48.062;7.850;2024-02-15T07:36:24;4.13;;;3.73;;
4214;SDS011;2121;48.062;7.850;2024-02-15T07:38:51;11.50;;;3.93;;
4214;SDS011;2121;48.062;7.850;2024-02-15T07:41:18;3.60;;;3.30;;
4214;SDS011;2121;48.062;7.850;2024-02-15T07:43:47;5.13;;;4.07;;
4214;SDS011;2121;48.062;7.850;2024-02-15T07:46:14;7.20;;;4.23;;
4214;SDS011;2121;48.062;7.850;2024-02-15T07:48:41;7.70;;;4.90;;
4214;SDS011;2121;48.062;7.850;2024-02-15T07:51:14;10.30;;;5.90;;
4214;SDS011;2121;48.062;7.850;2024-02-15T07:53:41;14.97;;;9.70;;
4214;SDS011;2121;48.062;7.850;2024-02-15T07:56:08;13.20;;;8.17;;
4214;SDS011;2121;48.062;7.850;2024-02-15T07:58:37;10.83;;;6.70;;
4214;SDS011;2121;48.062;7.850;2024-02-15T08:01:06;7.77;;;4.97;;
4214;SDS011;2121;48.062;7.850;2024-02-15T08:03:34;15.57;;;4.07;;
4214;SDS011;2121;48.062;7.850;2024-02-15T08:06:01;5.80;;;3.80;;
4214;SDS011;2121;48.062;7.850;2024-02-15T08:08:32;6.67;;;3.97;;
4214;SDS011;2121;48.062;7.850;2024-02-15T08:11:00;4.10;;;3.70;;
4214;SDS011;2121;48.062;7.850;2024-02-15T08:13:29;3.60;;;3.10;;
4214;SDS011;2121;48.062;7.850;2024-02-15T08:15:55;7.60;;;3.90;;
4214;SDS011;2121;48.062;7.850;2024-02-15T08:18:21;4.23;;;2.83;;
4214;SDS011;2121;48.062;7.850;2024-02-15T08:20:47;5.77;;;3.13;;
4214;SDS011;2121;48.062;7.850;2024-02-15T08:23:13;3.13;;;2.83;;
4214;SDS011;2121;48.062;7.850;2024-02-15T08:25:38;3.60;;;3.30;;
4214;SDS011;2121;48.062;7.850;2024-02-15T08:28:07;7.90;;;3.10;;
4214;SDS011;2121;48.062;7.850;2024-02-15T08:30:33;9.13;;;2.50;;
4214;SDS011;2121;48.062;7.850;2024-02-15T08:32:59;3.23;;;2.63;;
4214;SDS011;2121;48.062;7.850;2024-02-15T08:35:25;3.83;;;3.03;;
4214;SDS011;2121;48.062;7.850;2024-02-15T08:37:50;3.57;;;3.27;;
4214;SDS011;2121;48.062;7.850;2024-02-15T08:40:18;5.17;;;3.60;;
4214;SDS011;2121;48.062;7.850;2024-02-15T08:42:49;5.20;;;3.40;;
4214;SDS011;2121;48.062;7.850;2024-02-15T08:45:15;2.73;;;2.53;;
4214;SDS011;2121;48.062;7.850;2024-02-15T08:47:42;4.77;;;2.80;;
4214;SDS011;2121;48.062;7.850;2024-02-15T08:50:09;3.30;;;3.00;;
4214;SDS011;2121;48.062;7.850;2024-02-15T08:52:36;3.00;;;2.70;;
4214;SDS011;2121;48.062;7.850;2024-02-15T08:55:08;7.50;;;3.43;;
4214;SDS011;2121;48.062;7.850;2024-02-15T08:57:35;3.20;;;3.00;;
4214;SDS011;2121;48.062;7.850;2024-02-15T09:00:02;5.93;;;2.70;;
4214;SDS011;2121;48.062;7.850;2024-02-15T09:02:48;3.13;;;2.87;;
4214;SDS011;2121;48.062;7.850;2024-02-15T09:05:14;2.87;;;2.50;;
4214;SDS011;2121;48.062;7.850;2024-02-15T09:07:43;4.20;;;2.70;;
4214;SDS011;2121;48.062;7.850;2024-02-15T09:10:14;2.70;;;2.50;;
4214;SDS011;2121;48.062;7.850;2024-02-15T09:12:42;3.97;;;2.40;;
4214;SDS011;2121;48.062;7.850;2024-02-15T09:15:10;4.40;;;3.53;;
4214;SDS011;2121;48.062;7.850;2024-02-15T09:17:36;3.17;;;2.50;;
4214;SDS011;2121;48.062;7.850;2024-02-15T09:20:13;3.60;;;2.50;;
4214;SDS011;2121;48.062;7.850;2024-02-15T09:22:47;3.47;;;2.70;;
4214;SDS011;2121;48.062;7.850;2024-02-15T09:25:16;8.27;;;3.10;;
4214;SDS011;2121;48.062;7.850;2024-02-15T09:27:43;6.87;;;3.30;;
4214;SDS011;2121;48.062;7.850;2024-02-15T09:30:09;4.43;;;3.63;;
4214;SDS011;2121;48.062;7.850;2024-02-15T09:32:36;4.10;;;3.17;;
4214;SDS011;2121;48.062;7.850;2024-02-15T09:35:06;4.53;;;2.97;;
4214;SDS011;2121;48.062;7.850;2024-02-15T09:37:44;5.23;;;2.73;;
4214;SDS011;2121;48.062;7.850;2024-02-15T09:40:13;5.57;;;3.50;;
4214;SDS011;2121;48.062;7.850;2024-02-15T09:42:41;3.40;;;3.20;;
4214;SDS011;2121;48.062;7.850;2024-02-15T09:45:10;6.87;;;2.83;;
4214;SDS011;2121;48.062;7.850;2024-02-15T09:47:41;3.70;;;2.83;;
4214;SDS011;2121;48.062;7.850;2024-02-15T09:50:11;3.93;;;3.30;;
4214;SDS011;2121;48.062;7.850;2024-02-15T09:53:00;3.50;;;3.20;;
4214;SDS011;2121;48.062;7.850;2024-02-15T09:55:27;4.67;;;3.13;;
4214;SDS011;2121;48.062;7.850;2024-02-15T09:57:54;4.47;;;3.20;;
4214;SDS011;2121;48.062;7.850;2024-02-15T10:00:20;7.57;;;3.63;;
4214;SDS011;2121;48.062;7.850;2024-02-15T10:02:52;3.17;;;2.83;;
4214;SDS011;2121;48.062;7.850;2024-02-15T10:05:18;3.63;;;2.67;;
4214;SDS011;2121;48.062;7.850;2024-02-15T10:07:46;3.77;;;2.60;;
4214;SDS011;2121;48.062;7.850;2024-02-15T10:10:15;6.50;;;3.23;;
4214;SDS011;2121;48.062;7.850;2024-02-15T10:12:49;4.50;;;3.23;;
4214;SDS011;2121;48.062;7.850;2024-02-15T10:18:06;7.00;;;3.60;;
4214;SDS011;2121;48.062;7.850;2024-02-15T10:20:35;5.47;;;4.73;;
4214;SDS011;2121;48.062;7.850;2024-02-15T10:23:13;9.33;;;5.07;;
4214;SDS011;2121;48.062;7.850;2024-02-15T10:25:42;9.53;;;4.50;;
4214;SDS011;2121;48.062;7.850;2024-02-15T10:28:09;5.83;;;4.50;;
4214;SDS011;2121;48.062;7.850;2024-02-15T10:30:40;7.40;;;4.73;;
4214;SDS011;2121;48.062;7.850;2024-02-15T10:33:08;6.43;;;3.70;;
4214;SDS011;2121;48.062;7.850;2024-02-15T10:35:35;6.37;;;4.20;;
4214;SDS011;2121;48.062;7.850;2024-02-15T10:38:11;6.23;;;4.43;;
4214;SDS011;2121;48.062;7.850;2024-02-15T10:40:38;5.77;;;4.70;;
4214;SDS011;2121;48.062;7.850;2024-02-15T10:43:08;7.73;;;5.07;;
4214;SDS011;2121;48.062;7.850;2024-02-15T10:45:38;7.30;;;4.60;;
4214;SDS011;2121;48.062;7.850;2024-02-15T10:48:07;4.63;;;4.23;;
4214;SDS011;2121;48.062;7.850;2024-02-15T10:50:41;6.03;;;5.53;;
4214;SDS011;2121;48.062;7.850;2024-02-15T10:53:24;10.03;;;4.77;;
4214;SDS011;2121;48.062;7.850;2024-02-15T10:55:53;3.90;;;3.60;;
4214;SDS011;2121;48.062;7.850;2024-02-15T10:58:32;6.30;;;5.23;;
4214;SDS011;2121;48.062;7.850;2024-02-15T11:01:03;4.47;;;4.03;;
4214;SDS011;2121;48.062;7.850;2024-02-15T11:03:40;5.13;;;4.47;;
4214;SDS011;2121;48.062;7.850;2024-02-15T11:06:29;8.27;;;6.33;;
4214;SDS011;2121;48.062;7.850;2024-02-15T11:08:58;5.87;;;5.07;;
4214;SDS011;2121;48.062;7.850;2024-02-15T11:11:26;7.37;;;5.40;;
4214;SDS011;2121;48.062;7.850;2024-02-15T11:16:48;8.03;;;5.23;;
4214;SDS011;2121;48.062;7.850;2024-02-15T11:19:39;7.50;;;4.70;;
4214;SDS011;2121;48.062;7.850;2024-02-15T11:22:12;4.33;;;3.90;;
4214;SDS011;2121;48.062;7.850;2024-02-15T11:24:46;4.50;;;4.10;;
4214;SDS011;2121;48.062;7.850;2024-02-15T11:27:29;5.37;;;4.63;;
4214;SDS011;2121;48.062;7.850;2024-02-15T11:30:00;7.50;;;4.83;;
4214;SDS011;2121;48.062;7.850;2024-02-15T11:42:57;3.80;;;3.50;;
4214;SDS011;2121;48.062;7.850;2024-02-15T11:45:28;12.60;;;4.63;;
4214;SDS011;2121;48.062;7.850;2024-02-15T11:48:09;8.33;;;4.87;;
4214;SDS011;2121;48.062;7.850;2024-02-15T11:50:37;6.20;;;4.30;;
4214;SDS011;2121;48.062;7.850;2024-02-15T11:53:07;5.77;;;4.47;;
4214;SDS011;2121;48.062;7.850;2024-02-15T11:55:34;12.57;;;4.70;;
4214;SDS011;2121;48.062;7.850;2024-02-15T11:58:02;9.83;;;4.40;;
4214;SDS011;2121;48.062;7.850;2024-02-15T12:00:35;7.27;;;4.77;;
4214;SDS011;2121;48.062;7.850;2024-02-15T12:03:21;3.60;;;3.30;;
4214;SDS011;2121;48.062;7.850;2024-02-15T12:06:06;3.87;;;3.50;;
4214;SDS011;2121;48.062;7.850;2024-02-15T12:08:52;4.93;;;3.50;;
4214;SDS011;2121;48.062;7.850;2024-02-15T12:11:37;4.30;;;3.70;;
4214;SDS011;2121;48.062;7.850;2024-02-15T12:14:22;5.57;;;3.07;;
4214;SDS011;2121;48.062;7.850;2024-02-15T12:19:53;3.53;;;3.23;;
4214;SDS011;2121;48.062;7.850;2024-02-15T12:22:35;5.80;;;3.00;;
4214;SDS011;2121;48.062;7.850;2024-02-15T12:25:06;3.10;;;2.80;;
4214;SDS011;2121;48.062;7.850;2024-02-15T12:27:41;3.63;;;3.00;;
4214;SDS011;2121;48.062;7.850;2024-02-15T12:30:15;4.80;;;3.03;;
4214;SDS011;2121;48.062;7.850;2024-02-15T12:32:50;2.70;;;2.50;;
4214;SDS011;2121;48.062;7.850;2024-02-15T12:35:20;5.57;;;2.60;;
4214;SDS011;2121;48.062;7.850;2024-02-15T12:37:49;4.77;;;3.93;;
4214;SDS011;2121;48.062;7.850;2024-02-15T12:40:32;5.87;;;4.17;;
4214;SDS011;2121;48.062;7.850;2024-02-15T12:43:06;4.43;;;3.27;;
4214;SDS011;2121;48.062;7.850;2024-02-15T12:45:38;5.87;;;3.67;;
4214;SDS011;2121;48.062;7.850;2024-02-15T12:48:06;4.07;;;3.77;;
4214;SDS011;2121;48.062;7.850;2024-02-15T12:50:34;6.70;;;5.00;;
4214;SDS011;2121;48.062;7.850;2024-02-15T12:53:00;10.03;;;4.37;;
4214;SDS011;2121;48.062;7.850;2024-02-15T12:55:31;5.20;;;3.77;;
4214;SDS011;2121;48.062;7.850;2024-02-15T12:58:04;3.50;;;3.17;;
4214;SDS011;2121;48.062;7.850;2024-02-15T13:00:38;7.77;;;3.30;;
4214;SDS011;2121;48.062;7.850;2024-02-15T13:03:05;7.20;;;3.47;;
4214;SDS011;2121;48.062;7.850;2024-02-15T13:05:36;3.80;;;3.40;;
4214;SDS011;2121;48.062;7.850;2024-02-15T13:08:02;5.13;;;3.50;;
4214;SDS011;2121;48.062;7.850;2024-02-15T13:10:38;6.00;;;3.20;;
4214;SDS011;2121;48.062;7.850;2024-02-15T13:13:04;5.30;;;3.10;;
4214;SDS011;2121;48.062;7.850;2024-02-15T13:15:30;5.90;;;3.30;;
4214;SDS011;2121;48.062;7.850;2024-02-15T13:17:59;4.00;;;3.20;;
4214;SDS011;2121;48.062;7.850;2024-02-15T13:20:29;3.87;;;3.13;;
4214;SDS011;2121;48.062;7.850;2024-02-15T13:22:57;5.90;;;3.33;;
4214;SDS011;2121;48.062;7.850;2024-02-15T13:25:33;5.30;;;3.50;;
4214;SDS011;2121;48.062;7.850;2024-02-15T13:28:04;4.17;;;2.93;;
4214;SDS011;2121;48.062;7.850;2024-02-15T13:30:31;4.90;;;3.43;;
4214;SDS011;2121;48.062;7.850;2024-02-15T13:32:57;3.37;;;3.07;;
4214;SDS011;2121;48.062;7.850;2024-02-15T13:35:24;5.10;;;3.40;;
4214;SDS011;2121;48.062;7.850;2024-02-15T13:37:50;3.90;;;3.00;;
4214;SDS011;2121;48.062;7.850;2024-02-15T13:40:23;2.80;;;2.60;;
4214;SDS011;2121;48.062;7.850;2024-02-15T13:42:51;5.17;;;3.57;;
4214;SDS011;2121;48.062;7.850;2024-02-15T13:45:24;9.20;;;3.20;;
4214;SDS011;2121;48.062;7.850;2024-02-15T13:47:57;8.73;;;3.70;;
4214;SDS011;2121;48.062;7.850;2024-02-15T13:50:28;7.67;;;3.23;;
4214;SDS011;2121;48.062;7.850;2024-02-15T13:52:55;6.50;;;3.17;;
4214;SDS011;2121;48.062;7.850;2024-02-15T13:55:22;2.93;;;2.73;;
4214;SDS011;2121;48.062;7.850;2024-02-15T13:57:50;5.77;;;3.23;;
4214;SDS011;2121;48.062;7.850;2024-02-15T14:00:17;4.20;;;3.73;;
4214;SDS011;2121;48.062;7.850;2024-02-15T14:02:50;5.47;;;3.57;;
4214;SDS011;2121;48.062;7.850;2024-02-15T14:05:21;4.50;;;3.43;;
4214;SDS011;2121;48.062;7.850;2024-02-15T14:08:11;8.07;;;4.07;;
4214;SDS011;2121;48.062;7.850;2024-02-15T14:10:37;4.70;;;3.33;;
4214;SDS011;2121;48.062;7.850;2024-02-15T14:13:03;4.67;;;3.30;;
4214;SDS011;2121;48.062;7.850;2024-02-15T14:15:34;3.50;;;3.13;;
4214;SDS011;2121;48.062;7.850;2024-02-15T14:18:06;5.90;;;3.10;;
4214;SDS011;2121;48.062;7.850;2024-02-15T14:20:38;3.70;;;3.40;;
4214;SDS011;2121;48.062;7.850;2024-02-15T14:23:07;6.27;;;3.80;;
4214;SDS011;2121;48.062;7.850;2024-02-15T14:25:38;4.67;;;4.07;;
4214;SDS011;2121;48.062;7.850;2024-02-15T14:28:05;6.30;;;3.87;;
4214;SDS011;2121;48.062;7.850;2024-02-15T14:30:34;5.33;;;4.70;;
4214;SDS011;2121;48.062;7.850;2024-02-15T14:33:19;6.53;;;3.97;;
4214;SDS011;2121;48.062;7.850;2024-02-15T14:35:47;4.43;;;3.77;;
4214;SDS011;2121;48.062;7.850;2024-02-15T14:38:14;5.90;;;3.33;;
4214;SDS011;2121;48.062;7.850;2024-02-15T14:40:42;3.37;;;2.97;;
4214;SDS011;2121;48.062;7.850;2024-02-15T14:43:11;7.37;;;3.57;;
4214;SDS011;2121;48.062;7.850;2024-02-15T14:45:38;4.33;;;3.30;;
4214;SDS011;2121;48.062;7.850;2024-02-15T14:48:08;3.03;;;2.80;;
4214;SDS011;2121;48.062;7.850;2024-02-15T14:50:38;7.13;;;4.83;;
4214;SDS011;2121;48.062;7.850;2024-02-15T14:53:08;5.67;;;3.97;;
4214;SDS011;2121;48.062;7.850;2024-02-15T14:55:34;3.07;;;2.77;;
4214;SDS011;2121;48.062;7.850;2024-02-15T14:58:03;5.10;;;3.00;;
4214;SDS011;2121;48.062;7.850;2024-02-15T15:00:35;8.90;;;4.33;;
4214;SDS011;2121;48.062;7.850;2024-02-15T15:03:02;5.77;;;3.00;;
4214;SDS011;2121;48.062;7.850;2024-02-15T15:05:29;9.33;;;4.00;;
4214;SDS011;2121;48.062;7.850;2024-02-15T15:08:15;4.97;;;2.90;;
4214;SDS011;2121;48.062;7.850;2024-02-15T15:10:59;8.83;;;3.63;;
4214;SDS011;2121;48.062;7.850;2024-02-15T15:13:44;4.83;;;3.10;;
4214;SDS011;2121;48.062;7.850;2024-02-15T15:16:09;5.90;;;3.70;;
4214;SDS011;2121;48.062;7.850;2024-02-15T15:18:39;5.20;;;4.20;;
4214;SDS011;2121;48.062;7.850;2024-02-15T15:21:06;7.60;;;4.90;;
4214;SDS011;2121;48.062;7.850;2024-02-15T15:23:32;5.33;;;4.10;;
4214;SDS011;2121;48.062;7.850;2024-02-15T15:25:59;5.87;;;3.80;;
4214;SDS011;2121;48.062;7.850;2024-02-15T15:28:28;6.00;;;4.07;;
4214;SDS011;2121;48.062;7.850;2024-02-15T15:30:54;5.73;;;3.60;;
4214;SDS011;2121;48.062;7.850;2024-02-15T15:33:19;6.70;;;4.07;;
4214;SDS011;2121;48.062;7.850;2024-02-15T15:35:46;7.00;;;3.43;;
4214;SDS011;2121;48.062;7.850;2024-02-15T15:38:13;7.43;;;3.30;;
4214;SDS011;2121;48.062;7.850;2024-02-15T15:40:39;4.83;;;4.43;;
4214;SDS011;2121;48.062;7.850;2024-02-15T15:43:06;7.00;;;4.27;;
4214;SDS011;2121;48.062;7.850;2024-02-15T15:45:33;8.57;;;4.00;;
4214;SDS011;2121;48.062;7.850;2024-02-15T15:48:02;6.83;;;4.63;;